Time;durP1;ratioP1;P1;durP2;ratioP2;P2;SDS_P1;SDS_P2;PMS_P1;PMS_P2;Temp;Humidity;BMP_temperature;BMP_pressure;BME280_temperature;BME280_humidity;BME280_pressure;Samples;Min_cycle;Max_cycle;Signal;HPM_P1;HPM_P2
2023/06/05 00:02:08;;;;;;;6.05;4.03;;;12.40;99.90;;;;;;5052657;28;20033;-72
2023/06/05 00:04:36;;;;;;;5.90;3.67;;;12.40;99.90;;;;;;5051979;28;20047;-72
2023/06/05 00:07:02;;;;;;;6.80;3.72;;;12.40;99.90;;;;;;5052533;28;20041;-71
2023/06/05 00:09:28;;;;;;;5.15;4.20;;;12.40;99.90;;;;;;5051009;28;20025;-74
2023/06/05 00:11:53;;;;;;;5.30;3.70;;;12.40;99.90;;;;;;5052308;28;20028;-71
2023/06/05 00:14:19;;;;;;;5.15;3.88;;;12.40;99.90;;;;;;5050481;28;20453;-71
2023/06/05 00:16:45;;;;;;;4.38;3.90;;;12.40;99.90;;;;;;5051765;28;20116;-71
2023/06/05 00:19:12;;;;;;;6.30;4.15;;;12.40;99.90;;;;;;5052491;28;20033;-71
2023/06/05 00:21:37;;;;;;;6.03;4.30;;;12.40;99.90;;;;;;5051616;28;20029;-71
2023/06/05 00:24:03;;;;;;;4.93;4.15;;;12.30;99.90;;;;;;5051917;28;20051;-71
2023/06/05 00:26:29;;;;;;;5.43;3.92;;;12.20;99.90;;;;;;5051783;28;20051;-74
2023/06/05 00:28:55;;;;;;;6.32;4.72;;;12.20;99.90;;;;;;5051639;28;20336;-71
2023/06/05 00:31:21;;;;;;;6.28;4.47;;;12.20;99.90;;;;;;5052097;28;20077;-72
2023/06/05 00:33:48;;;;;;;6.78;4.65;;;12.20;99.90;;;;;;5051294;28;20446;-71
2023/06/05 00:36:14;;;;;;;7.57;4.68;;;12.20;99.90;;;;;;5051954;28;20068;-71
2023/06/05 00:38:40;;;;;;;7.60;4.85;;;12.20;99.90;;;;;;5051350;28;20053;-72
2023/06/05 00:41:05;;;;;;;7.63;4.88;;;12.20;99.90;;;;;;5051834;28;20032;-71
2023/06/05 00:43:31;;;;;;;8.13;5.43;;;12.20;99.90;;;;;;5051683;28;20211;-74
2023/06/05 00:46:02;;;;;;;6.82;5.03;;;12.10;99.90;;;;;;5051856;28;20455;-71
2023/06/05 00:48:29;;;;;;;7.28;4.63;;;12.00;99.90;;;;;;5051776;28;20029;-71
2023/06/05 00:50:56;;;;;;;6.13;4.15;;;12.00;99.90;;;;;;5051623;28;20067;-71
2023/06/05 00:53:23;;;;;;;7.90;4.75;;;12.00;99.90;;;;;;5052032;28;20400;-71
2023/06/05 00:55:49;;;;;;;5.43;4.43;;;12.00;99.90;;;;;;5051074;28;20021;-72
2023/06/05 00:58:16;;;;;;;5.80;4.10;;;11.90;99.90;;;;;;5051916;28;20021;-71
2023/06/05 01:00:42;;;;;;;6.88;4.50;;;11.90;99.90;;;;;;5050808;28;20033;-71
2023/06/05 01:03:08;;;;;;;6.22;4.68;;;11.80;99.90;;;;;;5051787;28;20043;-70
2023/06/05 01:05:36;;;;;;;7.18;4.88;;;11.80;99.90;;;;;;5051085;28;20128;-72
2023/06/05 01:08:02;;;;;;;7.38;4.20;;;11.90;99.90;;;;;;5051612;28;20029;-71
2023/06/05 01:10:29;;;;;;;5.90;4.85;;;11.80;99.90;;;;;;5051506;28;20036;-71
2023/06/05 01:13:02;;;;;;;7.85;5.22;;;11.80;99.90;;;;;;5050987;28;20044;-71
2023/06/05 01:15:29;;;;;;;9.65;4.78;;;11.70;99.90;;;;;;5051741;28;20025;-71
2023/06/05 01:18:00;;;;;;;6.45;4.78;;;11.70;99.90;;;;;;5051051;28;20028;-71
2023/06/05 01:20:38;;;;;;;5.68;4.72;;;11.60;99.90;;;;;;5051331;28;20025;-71
2023/06/05 01:23:08;;;;;;;6.75;5.20;;;11.60;99.90;;;;;;5049798;28;20065;-71
2023/06/05 01:25:36;;;;;;;7.50;5.35;;;11.60;99.90;;;;;;5050418;28;20043;-74
2023/06/05 01:28:17;;;;;;;8.45;5.43;;;11.50;99.90;;;;;;5051317;28;20343;-71
2023/06/05 01:30:53;;;;;;;7.10;4.68;;;11.50;99.90;;;;;;5050404;28;20474;-71
2023/06/05 01:33:33;;;;;;;5.40;4.32;;;11.50;99.90;;;;;;5051154;28;20120;-70
2023/06/05 01:36:04;;;;;;;7.47;4.65;;;11.50;99.90;;;;;;5050759;28;20454;-71
2023/06/05 01:38:33;;;;;;;6.50;4.60;;;11.50;99.90;;;;;;5051155;28;20036;-71
2023/06/05 01:41:00;;;;;;;8.63;4.80;;;11.50;99.90;;;;;;5050632;28;20029;-71
2023/06/05 01:43:26;;;;;;;6.03;5.00;;;11.50;99.90;;;;;;5050837;28;20043;-71
2023/06/05 01:45:56;;;;;;;7.03;4.80;;;11.40;99.90;;;;;;5049545;28;20020;-71
2023/06/05 01:48:23;;;;;;;6.68;5.00;;;11.40;99.90;;;;;;5050765;28;20100;-71
2023/06/05 01:50:52;;;;;;;5.72;4.40;;;11.40;99.90;;;;;;5048984;28;20025;-71
2023/06/05 01:53:19;;;;;;;5.70;4.47;;;11.40;99.90;;;;;;5050917;28;20027;-71
2023/06/05 01:55:46;;;;;;;5.32;4.30;;;11.40;99.90;;;;;;5049882;28;20029;-72
2023/06/05 01:58:12;;;;;;;6.47;4.45;;;11.30;99.90;;;;;;5050951;28;20029;-71
2023/06/05 02:00:38;;;;;;;7.32;4.47;;;11.30;99.90;;;;;;5050588;28;20047;-72
2023/06/05 02:03:04;;;;;;;5.57;4.60;;;11.40;99.90;;;;;;5050961;28;20115;-71
2023/06/05 02:05:30;;;;;;;7.20;4.72;;;11.30;99.90;;;;;;5050968;28;20029;-71
2023/06/05 02:07:58;;;;;;;6.80;4.78;;;11.30;99.90;;;;;;5050487;28;20607;-71
2023/06/05 02:10:24;;;;;;;7.50;5.13;;;11.40;99.90;;;;;;5051031;28;20040;-71
2023/06/05 02:12:51;;;;;;;5.13;4.63;;;11.30;99.90;;;;;;5050441;28;20033;-71
2023/06/05 02:15:17;;;;;;;6.00;4.57;;;11.20;99.90;;;;;;5050827;28;20056;-71
2023/06/05 02:17:53;;;;;;;6.82;4.88;;;11.20;99.90;;;;;;5049721;28;20029;-71
2023/06/05 02:20:22;;;;;;;5.60;4.53;;;11.20;99.90;;;;;;5050498;28;20128;-71
2023/06/05 02:22:51;;;;;;;5.65;4.28;;;11.10;99.90;;;;;;5049677;28;20029;-71
2023/06/05 02:25:21;;;;;;;7.20;5.32;;;11.20;99.90;;;;;;5050329;28;20086;-71
2023/06/05 02:27:47;;;;;;;9.68;4.90;;;11.10;99.90;;;;;;5049756;28;20407;-71
2023/06/05 02:30:13;;;;;;;5.18;4.65;;;11.00;99.90;;;;;;5050599;28;20071;-71
2023/06/05 02:32:43;;;;;;;5.93;4.75;;;11.00;99.90;;;;;;5049964;28;20061;-74
2023/06/05 02:35:13;;;;;;;7.07;4.43;;;11.00;99.90;;;;;;5050329;28;20465;-71
2023/06/05 02:37:48;;;;;;;7.85;4.30;;;11.00;99.90;;;;;;5049918;28;20132;-74
2023/06/05 02:40:14;;;;;;;8.60;5.22;;;11.00;99.90;;;;;;5050386;28;20025;-71
2023/06/05 02:42:41;;;;;;;6.10;4.20;;;11.00;99.90;;;;;;5049210;28;20442;-72
2023/06/05 02:45:08;;;;;;;7.40;4.30;;;11.00;99.90;;;;;;5050284;28;20029;-71
2023/06/05 02:47:34;;;;;;;7.65;4.75;;;10.90;99.90;;;;;;5048798;28;20033;-71
2023/06/05 02:50:00;;;;;;;6.80;4.97;;;11.00;99.90;;;;;;5049576;28;20295;-71
2023/06/05 02:52:27;;;;;;;5.30;4.05;;;10.90;99.90;;;;;;5050346;28;20104;-71
2023/06/05 02:54:53;;;;;;;5.35;4.35;;;10.90;99.90;;;;;;5049296;28;20071;-71
2023/06/05 02:57:19;;;;;;;6.15;4.65;;;10.90;99.90;;;;;;5051549;28;20056;-71
2023/06/05 02:59:45;;;;;;;7.70;4.85;;;10.90;99.90;;;;;;5053552;28;20025;-71
2023/06/05 03:02:11;;;;;;;9.57;5.53;;;10.80;99.90;;;;;;5053878;28;20156;-71
2023/06/05 03:04:39;;;;;;;5.63;4.63;;;10.90;99.90;;;;;;5054244;28;20135;-71
2023/06/05 03:07:05;;;;;;;6.82;5.32;;;10.80;99.90;;;;;;5053970;28;20021;-71
2023/06/05 03:09:31;;;;;;;6.57;4.45;;;10.70;99.90;;;;;;5053846;28;20385;-71
2023/06/05 03:12:00;;;;;;;6.28;5.15;;;10.60;99.90;;;;;;5053198;28;20033;-71
2023/06/05 03:14:30;;;;;;;10.48;5.72;;;10.70;99.90;;;;;;5053917;28;20025;-71
2023/06/05 03:16:58;;;;;;;6.13;5.53;;;10.70;99.90;;;;;;5052031;28;20069;-71
2023/06/05 03:19:24;;;;;;;6.60;5.20;;;10.60;99.90;;;;;;5053843;28;20029;-71
2023/06/05 03:21:50;;;;;;;6.63;4.97;;;10.60;99.90;;;;;;5052904;28;20104;-71
2023/06/05 03:24:16;;;;;;;8.55;5.03;;;10.60;99.90;;;;;;5053484;28;20054;-72
2023/06/05 03:26:43;;;;;;;6.45;5.10;;;10.60;99.90;;;;;;5052579;28;20048;-74
2023/06/05 03:29:10;;;;;;;7.30;5.07;;;10.60;99.90;;;;;;5051898;28;20108;-70
2023/06/05 03:31:36;;;;;;;6.43;5.20;;;10.50;99.90;;;;;;5053288;28;20108;-72
2023/06/05 03:34:03;;;;;;;6.50;5.20;;;10.50;99.90;;;;;;5052849;28;20498;-71
2023/06/05 03:36:32;;;;;;;6.85;4.63;;;10.50;99.90;;;;;;5053885;28;20025;-70
2023/06/05 03:38:58;;;;;;;10.70;4.93;;;10.50;99.90;;;;;;5052082;28;20033;-71
2023/06/05 03:41:23;;;;;;;7.03;5.20;;;10.50;99.90;;;;;;5053757;28;20037;-71
2023/06/05 03:43:49;;;;;;;5.80;4.88;;;10.50;99.90;;;;;;5053344;28;20033;-71
2023/06/05 03:46:18;;;;;;;7.85;5.38;;;10.50;99.90;;;;;;5053602;28;20029;-72
2023/06/05 03:48:59;;;;;;;6.72;4.88;;;10.50;99.90;;;;;;5052712;28;20025;-71
2023/06/05 03:51:29;;;;;;;7.72;5.35;;;10.40;99.90;;;;;;5053114;28;20486;-71
2023/06/05 03:53:58;;;;;;;8.15;5.43;;;10.40;99.90;;;;;;5052174;28;20497;-71
2023/06/05 03:56:39;;;;;;;9.50;5.55;;;10.50;99.90;;;;;;5052499;28;20489;-71
2023/06/05 03:59:18;;;;;;;9.45;5.18;;;10.50;99.90;;;;;;5052297;28;20047;-70
2023/06/05 04:01:45;;;;;;;8.00;4.97;;;10.50;99.90;;;;;;5036058;28;20116;-73
2023/06/05 04:04:10;;;;;;;8.63;5.32;;;10.40;99.90;;;;;;5052784;28;20068;-71
2023/06/05 04:06:36;;;;;;;7.68;5.28;;;10.50;99.90;;;;;;5052872;28;20056;-71
2023/06/05 04:09:11;;;;;;;7.43;5.25;;;10.40;99.90;;;;;;5051243;28;20029;-71
2023/06/05 04:11:41;;;;;;;6.65;4.82;;;10.40;99.90;;;;;;5052654;28;20041;-70
2023/06/05 04:14:08;;;;;;;6.43;5.40;;;10.40;99.90;;;;;;5052001;28;20480;-71
2023/06/05 04:16:38;;;;;;;7.10;4.95;;;10.40;99.90;;;;;;5052548;28;20029;-71
2023/06/05 04:19:06;;;;;;;7.50;4.90;;;10.30;99.90;;;;;;5051710;28;20033;-71
2023/06/05 04:21:35;;;;;;;4.72;4.22;;;10.30;99.90;;;;;;5052355;28;20403;-70
2023/06/05 04:24:06;;;;;;;6.72;4.95;;;10.40;99.90;;;;;;5050836;28;20078;-70
2023/06/05 04:26:33;;;;;;;6.88;4.70;;;10.40;99.90;;;;;;5052272;28;20056;-70
2023/06/05 04:28:59;;;;;;;7.20;4.97;;;10.40;99.90;;;;;;5051436;28;20029;-70
2023/06/05 04:31:25;;;;;;;5.63;4.80;;;10.40;99.90;;;;;;5052021;28;20025;-71
2023/06/05 04:33:51;;;;;;;5.90;4.72;;;10.40;99.90;;;;;;5051859;28;20025;-71
2023/06/05 04:36:20;;;;;;;6.13;4.93;;;10.40;99.90;;;;;;5052248;28;20036;-70
2023/06/05 04:38:46;;;;;;;8.05;5.03;;;10.50;99.90;;;;;;5051683;28;20025;-74
2023/06/05 04:41:12;;;;;;;6.80;4.80;;;10.50;99.90;;;;;;5051631;28;20398;-70
2023/06/05 04:43:38;;;;;;;6.68;4.80;;;10.60;99.90;;;;;;5052184;28;20044;-70
2023/06/05 04:46:03;;;;;;;5.30;4.43;;;10.60;99.90;;;;;;5051527;28;20074;-71
2023/06/05 04:48:30;;;;;;;6.57;5.00;;;10.70;99.90;;;;;;5051805;28;20033;-70
2023/06/05 04:50:58;;;;;;;5.75;4.18;;;10.70;99.90;;;;;;5051596;28;20036;-71
2023/06/05 04:53:24;;;;;;;5.60;4.60;;;10.80;99.90;;;;;;5052280;28;20481;-71
2023/06/05 04:55:50;;;;;;;7.18;5.05;;;11.00;99.90;;;;;;5051204;28;20097;-71
2023/06/05 04:58:16;;;;;;;8.68;4.85;;;11.10;99.90;;;;;;5051792;28;20100;-71
2023/06/05 05:00:47;;;;;;;7.47;4.85;;;11.20;99.90;;;;;;5051581;28;20091;-71
2023/06/05 05:03:13;;;;;;;6.25;5.05;;;11.30;99.90;;;;;;5051406;28;20060;-70
2023/06/05 05:05:39;;;;;;;6.10;4.60;;;11.40;99.90;;;;;;5051700;28;20451;-71
2023/06/05 05:08:05;;;;;;;7.57;4.70;;;11.50;99.90;;;;;;5050990;28;20083;-71
2023/06/05 05:10:32;;;;;;;5.75;4.57;;;11.60;99.90;;;;;;5051512;28;20033;-71
2023/06/05 05:13:01;;;;;;;6.28;4.47;;;11.70;99.90;;;;;;5050945;28;20063;-72
2023/06/05 05:15:28;;;;;;;8.93;4.43;;;11.90;99.90;;;;;;5051459;28;20112;-70
2023/06/05 05:17:55;;;;;;;5.45;4.35;;;12.00;99.90;;;;;;5051109;28;20391;-70
2023/06/05 05:20:21;;;;;;;5.35;4.35;;;12.20;99.90;;;;;;5050246;28;20035;-70
2023/06/05 05:22:47;;;;;;;6.57;4.88;;;12.30;99.90;;;;;;5051139;28;20316;-72
2023/06/05 05:25:13;;;;;;;6.10;4.47;;;12.40;99.90;;;;;;5050648;28;20078;-70
2023/06/05 05:27:39;;;;;;;4.68;3.97;;;12.50;99.90;;;;;;5050638;28;20490;-71
2023/06/05 05:30:05;;;;;;;7.15;4.93;;;12.60;99.90;;;;;;5050510;28;20100;-71
2023/06/05 05:32:31;;;;;;;7.78;5.50;;;12.80;99.90;;;;;;5051282;28;20067;-70
2023/06/05 05:34:57;;;;;;;6.53;4.90;;;12.90;99.90;;;;;;5050605;28;20092;-71
2023/06/05 05:37:23;;;;;;;8.00;4.30;;;13.00;99.90;;;;;;5051034;28;20613;-71
2023/06/05 05:39:48;;;;;;;11.27;4.93;;;13.20;99.90;;;;;;5049519;28;20025;-73
2023/06/05 05:42:15;;;;;;;6.95;4.90;;;13.40;99.90;;;;;;5050476;28;20047;-71
2023/06/05 05:44:43;;;;;;;6.82;4.90;;;13.50;99.90;;;;;;5050688;28;20028;-71
2023/06/05 05:47:10;;;;;;;5.45;4.50;;;13.70;99.90;;;;;;5050432;28;20039;-71
2023/06/05 05:49:36;;;;;;;7.55;4.70;;;13.80;99.90;;;;;;5050719;28;20025;-71
2023/06/05 05:52:02;;;;;;;5.50;4.43;;;13.90;99.90;;;;;;5050507;28;20087;-71
2023/06/05 05:54:28;;;;;;;5.97;4.20;;;14.00;99.90;;;;;;5050317;28;20109;-71
2023/06/05 05:56:54;;;;;;;6.72;5.07;;;14.10;99.90;;;;;;5049904;28;20033;-71
2023/06/05 05:59:21;;;;;;;7.07;4.80;;;14.20;99.90;;;;;;5050307;28;20485;-71
2023/06/05 06:01:48;;;;;;;7.95;4.90;;;14.30;99.90;;;;;;5050361;28;20037;-70
2023/06/05 06:04:18;;;;;;;10.80;5.30;;;14.40;99.90;;;;;;5049865;28;20407;-71
2023/06/05 06:06:47;;;;;;;6.97;5.03;;;14.50;99.90;;;;;;5050361;28;20367;-70
2023/06/05 06:09:14;;;;;;;9.95;4.80;;;14.70;99.90;;;;;;5048478;28;20029;-70
2023/06/05 06:11:41;;;;;;;9.15;4.72;;;14.80;99.90;;;;;;5050088;28;20104;-70
2023/06/05 06:14:09;;;;;;;9.00;5.05;;;14.90;99.90;;;;;;5049808;28;20025;-71
2023/06/05 06:16:36;;;;;;;6.63;4.80;;;15.00;99.90;;;;;;5050536;28;20025;-70
2023/06/05 06:19:03;;;;;;;9.05;5.22;;;15.20;99.90;;;;;;5049512;28;20029;-71
2023/06/05 06:21:29;;;;;;;7.60;4.68;;;15.30;99.90;;;;;;5050200;28;20162;-70
2023/06/05 06:23:55;;;;;;;8.32;4.00;;;15.40;99.90;;;;;;5049943;28;20112;-71
2023/06/05 06:26:21;;;;;;;5.40;4.05;;;15.60;99.90;;;;;;5050299;28;20129;-70
2023/06/05 06:28:47;;;;;;;6.88;3.97;;;15.70;99.90;;;;;;5050209;28;20082;-70
2023/06/05 06:31:13;;;;;;;6.35;4.82;;;15.90;99.90;;;;;;5049744;28;20100;-71
2023/06/05 06:33:39;;;;;;;50.85;8.35;;;16.10;99.90;;;;;;5048838;28;20425;-71
2023/06/05 06:36:04;;;;;;;12.77;5.20;;;16.20;99.90;;;;;;5049678;28;20029;-72
2023/06/05 06:38:31;;;;;;;8.23;5.28;;;16.30;99.90;;;;;;5050025;28;20039;-71
2023/06/05 06:40:58;;;;;;;7.95;5.28;;;16.40;99.90;;;;;;5049575;28;20048;-71
2023/06/05 06:43:24;;;;;;;8.50;5.20;;;16.60;99.90;;;;;;5050116;28;20037;-70
2023/06/05 06:45:51;;;;;;;10.45;5.32;;;16.70;99.90;;;;;;5049936;28;20043;-72
2023/06/05 06:48:18;;;;;;;7.35;4.90;;;16.90;99.90;;;;;;5049318;28;20057;-69
2023/06/05 06:50:44;;;;;;;10.80;5.53;;;17.00;99.90;;;;;;5049893;28;20033;-69
2023/06/05 06:53:10;;;;;;;9.50;4.30;;;17.10;99.90;;;;;;5049618;28;20029;-71
2023/06/05 06:55:36;;;;;;;7.60;5.20;;;17.20;99.90;;;;;;5049674;28;20351;-70
2023/06/05 06:58:04;;;;;;;8.93;5.38;;;17.30;99.90;;;;;;5049424;28;20041;-70
2023/06/05 07:00:30;;;;;;;8.23;5.05;;;17.50;99.90;;;;;;5049291;28;20458;-70
2023/06/05 07:02:56;;;;;;;7.97;5.10;;;17.50;99.90;;;;;;5048827;28;20042;-73
2023/06/05 07:05:22;;;;;;;9.60;5.60;;;17.60;99.90;;;;;;5048172;28;20021;-71
2023/06/05 07:07:48;;;;;;;10.38;5.38;;;17.60;99.90;;;;;;5049271;28;20033;-71
2023/06/05 07:10:14;;;;;;;10.77;5.43;;;17.70;99.90;;;;;;5048675;28;20037;-71
2023/06/05 07:12:40;;;;;;;6.60;4.60;;;17.80;99.90;;;;;;5049322;28;20036;-71
2023/06/05 07:15:06;;;;;;;12.38;5.38;;;17.90;99.90;;;;;;5048844;28;20036;-71
2023/06/05 07:17:32;;;;;;;11.43;5.47;;;18.00;99.90;;;;;;5049446;28;20025;-71
2023/06/05 07:19:57;;;;;;;7.38;5.00;;;18.00;99.90;;;;;;5049273;28;20052;-73
2023/06/05 07:22:28;;;;;;;11.75;5.10;;;18.00;99.90;;;;;;5047831;28;20439;-71
2023/06/05 07:24:54;;;;;;;8.45;5.28;;;18.10;99.90;;;;;;5049481;28;20113;-72
2023/06/05 07:27:20;;;;;;;11.13;4.75;;;18.20;99.90;;;;;;5049197;28;20438;-71
2023/06/05 07:29:46;;;;;;;9.73;4.78;;;18.20;99.90;;;;;;5049442;28;20021;-71
2023/06/05 07:32:12;;;;;;;11.93;4.80;;;18.30;99.90;;;;;;5048797;28;20029;-71
2023/06/05 07:34:38;;;;;;;6.97;4.40;;;18.40;99.90;;;;;;5049420;28;20025;-71
2023/06/05 07:37:04;;;;;;;6.22;4.00;;;18.50;99.90;;;;;;5049000;28;20017;-71
2023/06/05 07:39:30;;;;;;;9.45;4.95;;;18.60;99.90;;;;;;5049673;28;20022;-71
2023/06/05 07:41:56;;;;;;;6.55;4.82;;;18.80;99.90;;;;;;5049166;28;20482;-74
2023/06/05 07:44:22;;;;;;;9.70;4.60;;;18.70;99.90;;;;;;5050627;28;20048;-71
2023/06/05 07:46:49;;;;;;;6.15;4.15;;;18.80;99.90;;;;;;5053170;28;20415;-72
2023/06/05 07:49:15;;;;;;;11.75;4.00;;;18.80;99.90;;;;;;5052688;28;20031;-72
2023/06/05 07:51:43;;;;;;;7.55;4.38;;;18.80;99.90;;;;;;5053160;28;20343;-71
2023/06/05 07:54:13;;;;;;;8.77;5.05;;;19.00;99.90;;;;;;5052552;28;20068;-72
2023/06/05 07:56:39;;;;;;;5.60;3.58;;;19.10;99.90;;;;;;5051968;28;20021;-71
2023/06/05 07:59:06;;;;;;;8.70;4.22;;;19.20;99.90;;;;;;5053827;28;20074;-71
2023/06/05 08:01:39;;;;;;;7.82;4.00;;;19.20;99.90;;;;;;5053722;28;20458;-71
2023/06/05 08:04:10;;;;;;;8.38;4.50;;;19.10;99.90;;;;;;5052862;28;20028;-71
2023/06/05 08:06:40;;;;;;;7.60;4.07;;;19.00;99.90;;;;;;5053003;28;20451;-71
2023/06/05 08:09:07;;;;;;;7.75;3.70;;;19.20;99.90;;;;;;5052357;28;20041;-72
2023/06/05 08:11:33;;;;;;;6.70;3.80;;;19.30;99.90;;;;;;5052969;28;20123;-71
2023/06/05 08:13:59;;;;;;;6.00;3.67;;;19.50;99.90;;;;;;5052792;28;20029;-74
2023/06/05 08:16:24;;;;;;;4.88;3.58;;;19.60;99.90;;;;;;5052407;28;20048;-72
2023/06/05 08:18:50;;;;;;;7.10;3.58;;;19.40;99.90;;;;;;5052857;28;20032;-70
2023/06/05 08:21:16;;;;;;;8.23;4.13;;;19.50;99.90;;;;;;5051919;28;20390;-71
2023/06/05 08:23:42;;;;;;;5.65;3.92;;;19.40;99.90;;;;;;5052629;28;20394;-71
2023/06/05 08:26:10;;;;;;;5.10;4.10;;;19.60;99.90;;;;;;5051441;28;20044;-71
2023/06/05 08:28:40;;;;;;;7.50;4.50;;;19.60;99.90;;;;;;5052358;28;20480;-72
2023/06/05 08:31:07;;;;;;;6.47;4.25;;;19.50;99.90;;;;;;5051638;28;20029;-71
2023/06/05 08:33:37;;;;;;;6.25;3.90;;;19.60;99.90;;;;;;5052078;28;20534;-71
2023/06/05 08:36:05;;;;;;;7.00;4.55;;;19.70;99.90;;;;;;5051296;28;20039;-74
2023/06/05 08:38:32;;;;;;;7.70;4.18;;;19.60;99.90;;;;;;5052215;28;20081;-71
2023/06/05 08:41:10;;;;;;;5.97;4.63;;;19.70;99.90;;;;;;5051830;28;20443;-72
2023/06/05 08:43:40;;;;;;;8.00;4.57;;;19.80;99.90;;;;;;5051595;28;20037;-71
2023/06/05 08:46:08;;;;;;;7.53;4.45;;;19.60;99.90;;;;;;5050624;28;20455;-72
2023/06/05 08:48:41;;;;;;;8.13;4.30;;;19.40;99.90;;;;;;5051957;28;20485;-72
2023/06/05 08:51:10;;;;;;;6.35;3.83;;;19.60;99.90;;;;;;5051905;28;20024;-72
2023/06/05 08:53:38;;;;;;;10.73;4.70;;;19.60;99.90;;;;;;5052008;28;20059;-72
2023/06/05 08:56:05;;;;;;;8.02;4.85;;;19.50;99.90;;;;;;5051169;28;20032;-75
2023/06/05 08:58:32;;;;;;;5.57;4.05;;;19.40;99.90;;;;;;5051906;28;20148;-71
2023/06/05 09:00:59;;;;;;;9.35;4.55;;;19.30;99.90;;;;;;5051763;28;20033;-71
2023/06/05 09:03:25;;;;;;;6.72;4.10;;;19.40;99.90;;;;;;5051044;28;20253;-72
2023/06/05 09:05:53;;;;;;;7.80;4.65;;;19.40;99.90;;;;;;5050051;28;20112;-71
2023/06/05 09:08:31;;;;;;;6.25;3.92;;;19.50;99.90;;;;;;5052365;28;20235;-71
2023/06/05 09:11:22;;;;;;;6.90;4.45;;;19.60;99.90;;;;;;5049655;28;20110;-71
2023/06/05 09:13:48;;;;;;;6.82;4.30;;;19.70;99.90;;;;;;5050747;28;20045;-71
2023/06/05 09:16:15;;;;;;;8.18;4.57;;;19.40;99.90;;;;;;5049184;28;20375;-71
2023/06/05 09:19:07;;;;;;;6.70;4.03;;;19.60;99.90;;;;;;5050792;28;20423;-72
2023/06/05 09:21:33;;;;;;;10.15;4.47;;;19.60;99.90;;;;;;5047473;28;20029;-72
2023/06/05 09:24:11;;;;;;;6.88;4.25;;;19.60;99.90;;;;;;5050891;28;20048;-74
2023/06/05 09:26:52;;;;;;;9.77;4.13;;;19.70;99.90;;;;;;5031049;28;20056;-72
2023/06/05 09:29:30;;;;;;;8.43;4.45;;;19.50;99.90;;;;;;5030599;28;20102;-72
2023/06/05 09:32:01;;;;;;;6.93;4.13;;;19.60;99.90;;;;;;5030965;28;20030;-72
2023/06/05 09:34:37;;;;;;;6.07;3.80;;;19.70;99.90;;;;;;5030723;28;20033;-72
2023/06/05 09:37:08;;;;;;;5.95;3.95;;;19.70;99.90;;;;;;5030975;28;20021;-73
2023/06/05 09:39:35;;;;;;;5.25;3.60;;;19.90;99.90;;;;;;5031024;28;20064;-71
2023/06/05 09:42:01;;;;;;;8.02;3.67;;;20.20;99.90;;;;;;5030758;28;20033;-72
2023/06/05 09:44:29;;;;;;;4.50;3.50;;;20.20;99.90;;;;;;5030253;28;20174;-71
2023/06/05 09:47:07;;;;;;;5.38;3.33;;;20.30;99.90;;;;;;5030996;28;20017;-71
2023/06/05 09:49:41;;;;;;;6.97;3.80;;;20.30;99.90;;;;;;5031070;28;20075;-70
2023/06/05 09:52:10;;;;;;;4.45;3.35;;;20.20;99.90;;;;;;5030306;28;20495;-72
2023/06/05 09:54:41;;;;;;;6.50;3.25;;;20.30;99.90;;;;;;5030846;28;20171;-72
2023/06/05 09:57:11;;;;;;;6.03;3.15;;;20.50;99.90;;;;;;5029285;28;20451;-75
2023/06/05 09:59:54;;;;;;;8.05;3.47;;;20.40;99.90;;;;;;5030235;28;20064;-70
2023/06/05 10:02:22;;;;;;;7.45;3.80;;;20.30;99.90;;;;;;5041708;28;20179;-72
2023/06/05 10:04:51;;;;;;;6.22;3.38;;;20.30;99.90;;;;;;5049967;28;20225;-71
2023/06/05 10:07:18;;;;;;;6.90;3.58;;;20.30;99.90;;;;;;5049200;28;20159;-73
2023/06/05 10:09:48;;;;;;;6.72;3.25;;;20.30;99.90;;;;;;5050259;28;20025;-72
2023/06/05 10:12:15;;;;;;;4.20;2.95;;;20.30;99.90;;;;;;5048277;28;20025;-72
2023/06/05 10:14:42;;;;;;;4.32;3.20;;;20.30;99.90;;;;;;5049895;28;20090;-72
2023/06/05 10:17:12;;;;;;;3.70;2.85;;;20.10;99.90;;;;;;5048562;28;20025;-75
2023/06/05 10:19:44;;;;;;;3.83;2.50;;;20.20;99.90;;;;;;5050044;28;20032;-72
2023/06/05 10:22:11;;;;;;;4.05;2.92;;;20.30;99.90;;;;;;5049064;28;20039;-72
2023/06/05 10:25:00;;;;;;;3.22;2.60;;;20.50;99.90;;;;;;5049722;28;20044;-72
2023/06/05 10:27:47;;;;;;;3.92;2.80;;;20.60;99.90;;;;;;5048742;28;20101;-71
2023/06/05 10:30:52;;;;;;;3.28;2.70;;;20.60;99.90;;;;;;5048694;28;20483;-72
2023/06/05 10:33:46;;;;;;;8.20;2.90;;;20.60;99.90;;;;;;5050021;28;20124;-72
2023/06/05 10:36:58;;;;;;;4.22;2.70;;;20.60;99.90;;;;;;5049325;28;20029;-72
2023/06/05 10:39:25;;;;;;;5.05;3.20;;;20.40;99.90;;;;;;5048611;28;20097;-71
2023/06/05 10:41:51;;;;;;;5.65;3.53;;;20.00;99.90;;;;;;5049160;28;20128;-71
2023/06/05 10:44:17;;;;;;;5.63;2.95;;;20.00;99.90;;;;;;5048722;28;20096;-71
2023/06/05 10:46:43;;;;;;;3.40;2.90;;;20.10;99.90;;;;;;5049195;28;20097;-72
2023/06/05 10:49:20;;;;;;;4.00;2.63;;;20.30;99.90;;;;;;5048447;28;20037;-74
2023/06/05 10:51:48;;;;;;;5.18;3.63;;;20.40;99.90;;;;;;5049519;28;20033;-71
2023/06/05 10:54:23;;;;;;;6.28;4.05;;;20.40;99.90;;;;;;5048394;28;20052;-72
2023/06/05 10:56:59;;;;;;;4.25;3.17;;;20.10;99.90;;;;;;5049132;28;20036;-71
2023/06/05 11:00:04;;;;;;;8.15;3.42;;;19.90;99.90;;;;;;5048693;28;20076;-71
2023/06/05 11:02:29;;;;;;;5.30;3.80;;;19.70;99.90;;;;;;5048759;28;20612;-71
2023/06/05 11:04:58;;;;;;;6.20;3.25;;;19.80;99.90;;;;;;5049038;28;20035;-71
2023/06/05 11:07:30;;;;;;;5.75;3.70;;;19.80;99.90;;;;;;5047316;28;20374;-71
2023/06/05 11:10:05;;;;;;;5.40;3.50;;;19.60;99.90;;;;;;5049326;28;20025;-71
2023/06/05 11:12:42;;;;;;;5.60;4.22;;;19.60;99.90;;;;;;5048752;28;20081;-71
2023/06/05 11:15:12;;;;;;;5.53;3.80;;;19.60;99.90;;;;;;5049346;28;20036;-71
2023/06/05 11:17:39;;;;;;;6.68;3.80;;;19.60;99.90;;;;;;5049801;28;20485;-71
2023/06/05 11:20:10;;;;;;;5.95;3.80;;;19.50;99.90;;;;;;5053465;28;20029;-71
2023/06/05 11:22:58;;;;;;;5.10;3.72;;;19.60;99.90;;;;;;5053461;28;20124;-71
2023/06/05 11:25:29;;;;;;;4.65;3.00;;;19.60;99.90;;;;;;5048530;28;20053;-71
2023/06/05 11:28:01;;;;;;;5.88;3.00;;;19.70;99.90;;;;;;5053456;28;20112;-71
2023/06/05 11:30:32;;;;;;;6.90;3.38;;;19.80;99.90;;;;;;5052733;28;20025;-71
2023/06/05 11:33:14;;;;;;;7.60;4.10;;;19.90;99.90;;;;;;5053232;28;20041;-71
2023/06/05 11:35:42;;;;;;;6.45;3.15;;;19.70;99.90;;;;;;5052811;28;20393;-71
2023/06/05 11:38:13;;;;;;;7.35;3.35;;;19.80;99.90;;;;;;5053009;28;20120;-71
2023/06/05 11:40:41;;;;;;;6.22;3.20;;;19.90;99.90;;;;;;5053104;28;20112;-71
2023/06/05 11:43:11;;;;;;;6.18;3.58;;;20.00;99.90;;;;;;5053053;28;20124;-71
2023/06/05 11:45:42;;;;;;;5.25;3.70;;;20.00;99.90;;;;;;5052407;28;20025;-71
2023/06/05 11:48:11;;;;;;;5.22;3.38;;;19.90;99.90;;;;;;5052622;28;20044;-72
2023/06/05 11:50:38;;;;;;;4.50;3.30;;;19.90;99.90;;;;;;5052184;28;20029;-71
2023/06/05 11:53:09;;;;;;;4.65;3.53;;;19.90;99.90;;;;;;5051809;28;20033;-71
2023/06/05 11:58:28;;;;;;;7.07;3.85;;;20.10;99.90;;;;;;5052358;28;20120;-71
2023/06/05 12:01:21;;;;;;;6.78;3.58;;;19.90;99.90;;;;;;5052587;28;20501;-71
2023/06/05 12:03:48;;;;;;;;;;;19.90;99.90;;;;;;5053301;28;20094;-71
2023/06/05 12:06:16;;;;;;;7.55;4.10;;;19.90;99.90;;;;;;5052329;28;19995;-73
2023/06/05 12:08:42;;;;;;;6.57;4.25;;;19.90;99.90;;;;;;5052434;28;20087;-71
2023/06/05 12:11:26;;;;;;;8.23;3.92;;;19.80;99.90;;;;;;5052540;28;20428;-71
2023/06/05 12:13:52;;;;;;;4.07;3.40;;;19.70;99.90;;;;;;5051650;28;20040;-71
2023/06/05 12:16:19;;;;;;;5.60;3.30;;;19.80;99.90;;;;;;5050497;28;20074;-71
2023/06/05 12:18:47;;;;;;;6.75;3.30;;;19.90;99.90;;;;;;5051390;28;20532;-71
2023/06/05 12:21:20;;;;;;;4.85;2.60;;;19.90;99.90;;;;;;5051330;28;20119;-71
2023/06/05 12:23:46;;;;;;;5.43;3.25;;;19.90;99.90;;;;;;5050965;28;20060;-71
2023/06/05 12:26:12;;;;;;;5.25;3.67;;;19.90;99.90;;;;;;5049281;28;20439;-71
2023/06/05 12:28:39;;;;;;;7.05;3.67;;;19.80;99.90;;;;;;5051336;28;20463;-71
2023/06/05 12:31:05;;;;;;;6.40;3.65;;;19.80;99.90;;;;;;5051629;28;20025;-71
2023/06/05 12:33:30;;;;;;;9.45;4.13;;;19.80;99.90;;;;;;5051927;28;20490;-71
2023/06/05 12:36:05;;;;;;;5.47;3.83;;;20.00;99.90;;;;;;5050720;28;20103;-71
2023/06/05 12:38:30;;;;;;;7.82;4.68;;;20.10;99.90;;;;;;5051463;28;20209;-71
2023/06/05 12:40:57;;;;;;;6.55;4.10;;;19.90;99.90;;;;;;5051649;28;20096;-72
2023/06/05 12:43:22;;;;;;;5.80;4.50;;;19.80;99.90;;;;;;5051157;28;20025;-71
2023/06/05 12:45:50;;;;;;;8.90;4.30;;;19.90;99.90;;;;;;5050349;28;20450;-70
2023/06/05 12:48:15;;;;;;;5.90;4.15;;;19.80;99.90;;;;;;5049733;28;20036;-74
2023/06/05 12:50:42;;;;;;;5.15;4.55;;;19.80;99.90;;;;;;5051701;28;20033;-71
2023/06/05 12:53:08;;;;;;;7.10;4.72;;;19.70;99.90;;;;;;5051804;28;20055;-71
2023/06/05 12:55:34;;;;;;;7.80;4.68;;;19.60;99.90;;;;;;5051112;28;20025;-71
2023/06/05 12:58:00;;;;;;;10.70;4.97;;;19.50;99.90;;;;;;5051559;28;20025;-71